Time;durP1;ratioP1;P1;durP2;ratioP2;P2;SDS_P1;SDS_P2;PMS_P1;PMS_P2;Temp;Humidity;BMP_temperature;BMP_pressure;BME280_temperature;BME280_humidity;BME280_pressure;Samples;Min_cycle;Max_cycle;Signal;HPM_P1;HPM_P2
2022/10/15 00:01:47;;;;;;;2.58;1.40;;;;;;;12.96;97.82;97812.25;4155902;28;20033;-73
2022/10/15 00:03:48;;;;;;;2.00;1.50;;;;;;;12.98;97.38;97811.84;4157749;28;20045;-73
2022/10/15 00:05:48;;;;;;;1.60;1.20;;;;;;;12.92;96.96;97803.97;4155330;28;20041;-73
2022/10/15 00:07:48;;;;;;;1.80;1.25;;;;;;;12.95;97.43;97802.34;4156316;28;20136;-73
2022/10/15 00:09:49;;;;;;;2.03;1.50;;;;;;;12.98;97.57;97809.06;4155919;28;20049;-73
2022/10/15 00:11:49;;;;;;;2.78;1.63;;;;;;;13.04;97.53;97807.44;4155512;28;20045;-73
2022/10/15 00:13:52;;;;;;;1.60;1.38;;;;;;;13.07;97.73;97804.59;4157138;28;20033;-73
2022/10/15 00:15:53;;;;;;;1.60;1.45;;;;;;;13.10;97.36;97800.25;4156346;28;20046;-73
2022/10/15 00:17:53;;;;;;;2.40;1.50;;;;;;;13.10;97.66;97803.81;4157078;28;20111;-73
2022/10/15 00:19:53;;;;;;;1.70;1.40;;;;;;;13.07;97.17;97801.84;4155237;28;20068;-73
2022/10/15 00:21:53;;;;;;;1.63;1.30;;;;;;;13.08;97.47;97799.88;4155969;28;20049;-73
2022/10/15 00:23:54;;;;;;;1.48;1.38;;;;;;;13.07;97.33;97795.50;4156064;28;20505;-73
2022/10/15 00:26:03;;;;;;;1.70;1.50;;;;;;;13.08;97.00;97803.44;4155367;28;20045;-73
2022/10/15 00:28:03;;;;;;;2.92;1.50;;;;;;;13.08;97.50;97797.09;4157096;28;20056;-73
2022/10/15 00:30:05;;;;;;;1.63;1.35;;;;;;;13.06;97.69;97796.69;4155232;28;20033;-73
2022/10/15 00:32:05;;;;;;;1.80;1.50;;;;;;;13.07;97.70;97807.38;4155348;28;20477;-73
2022/10/15 00:34:05;;;;;;;2.40;1.77;;;;;;;13.03;97.74;97795.53;4156580;28;20159;-73
2022/10/15 00:36:17;;;;;;;2.42;1.58;;;;;;;13.05;97.31;97795.13;4156045;28;20461;-73
2022/10/15 00:38:17;;;;;;;2.80;1.50;;;;;;;13.03;97.29;97794.75;4154684;28;20025;-73
2022/10/15 00:40:18;;;;;;;1.92;1.35;;;;;;;12.99;97.19;97792.03;4156743;28;20021;-73
2022/10/15 00:42:19;;;;;;;2.00;1.60;;;;;;;13.00;97.37;97796.38;4159796;28;20470;-73
2022/10/15 00:44:27;;;;;;;1.50;1.40;;;;;;;12.98;97.92;97795.97;4155920;28;20025;-73
2022/10/15 00:46:35;;;;;;;2.90;1.70;;;;;;;12.93;97.25;97800.00;4159297;28;20217;-73
2022/10/15 00:48:35;;;;;;;1.58;1.40;;;;;;;12.94;97.67;97798.78;4156151;28;20087;-73
2022/10/15 00:50:36;;;;;;;1.65;1.25;;;;;;;12.91;97.87;97796.84;4159020;28;20085;-73
2022/10/15 00:52:41;;;;;;;1.52;1.30;;;;;;;12.90;96.84;97800.00;4155732;28;20049;-73
2022/10/15 00:54:46;;;;;;;1.30;1.10;;;;;;;12.93;97.43;97794.44;4155330;28;20343;-73
2022/10/15 00:56:48;;;;;;;1.73;1.42;;;;;;;12.93;97.79;97799.22;4156612;28;20088;-73
2022/10/15 00:58:52;;;;;;;1.60;1.20;;;;;;;12.92;97.65;97798.41;4154858;28;20506;-73
2022/10/15 01:00:54;;;;;;;1.73;1.30;;;;;;;12.90;97.43;97795.25;4156347;28;20052;-73
2022/10/15 01:02:54;;;;;;;1.63;1.40;;;;;;;12.90;96.98;97792.47;4158452;28;20044;-73
2022/10/15 01:04:54;;;;;;;1.95;1.30;;;;;;;12.90;97.04;97786.91;4155721;28;20037;-73
2022/10/15 01:06:55;;;;;;;4.55;1.20;;;;;;;12.92;97.59;97783.75;4155153;28;20171;-73
2022/10/15 01:08:55;;;;;;;1.20;1.02;;;;;;;12.91;97.16;97780.19;4154857;28;20045;-73
2022/10/15 01:11:04;;;;;;;1.80;1.30;;;;;;;12.89;96.45;97777.00;4155289;28;20045;-73
2022/10/15 01:13:48;;;;;;;1.23;1.10;;;;;;;12.84;96.11;97766.38;4159020;28;20054;-73
2022/10/15 01:16:03;;;;;;;1.38;1.00;;;;;;;12.80;97.11;97770.34;4156849;28;20068;-73
2022/10/15 01:18:13;;;;;;;1.20;0.90;;;;;;;12.79;97.73;97772.34;4153838;28;20049;-73
2022/10/15 01:20:55;;;;;;;1.55;1.10;;;;;;;12.76;98.02;97772.38;4168218;28;20056;-73
2022/10/15 01:23:01;;;;;;;1.17;0.98;;;;;;;12.78;98.11;97765.22;4155094;28;20081;-73
2022/10/15 01:25:20;;;;;;;1.25;1.00;;;;;;;12.79;98.03;97771.56;4156550;28;20151;-73
2022/10/15 01:27:31;;;;;;;1.52;1.10;;;;;;;12.77;98.35;97769.19;4157387;28;20601;-73
2022/10/15 01:29:49;;;;;;;1.27;1.02;;;;;;;12.79;98.58;97775.13;4153894;28;20797;-73
2022/10/15 01:32:28;;;;;;;2.20;1.08;;;;;;;12.79;98.56;97777.91;4154998;28;20136;-73
2022/10/15 01:34:54;;;;;;;1.20;0.90;;;;;;;12.78;98.69;97770.78;4156293;28;20047;-73
2022/10/15 01:37:10;;;;;;;1.20;0.93;;;;;;;12.77;98.55;97754.53;4154744;28;20579;-73
2022/10/15 01:39:18;;;;;;;1.17;0.98;;;;;;;12.76;98.32;97753.75;4156264;28;20409;-73
2022/10/15 01:42:08;;;;;;;1.10;0.95;;;;;;;12.78;98.65;97756.09;4161906;28;20398;-73
2022/10/15 01:44:15;;;;;;;1.35;0.90;;;;;;;12.77;98.36;97748.97;4132246;28;20041;-73
2022/10/15 01:46:22;;;;;;;1.13;1.00;;;;;;;12.77;98.45;97748.97;4156292;28;20029;-73
2022/10/15 01:48:26;;;;;;;1.10;0.98;;;;;;;12.72;98.55;97744.66;4160644;28;20033;-73
2022/10/15 01:50:30;;;;;;;1.10;0.90;;;;;;;12.70;98.54;97744.28;4155850;28;20037;-73
2022/10/15 01:52:35;;;;;;;1.05;0.85;;;;;;;12.69;98.80;97753.81;4156097;28;20045;-73
2022/10/15 01:54:36;;;;;;;0.70;0.70;;;;;;;12.67;98.63;97753.44;4155414;28;20033;-73
2022/10/15 01:56:37;;;;;;;1.52;0.85;;;;;;;12.65;98.91;97745.50;4155546;28;20482;-73
2022/10/15 01:58:41;;;;;;;1.27;0.82;;;;;;;12.66;98.67;97746.31;4159036;28;20046;-73
2022/10/15 02:00:43;;;;;;;1.10;1.00;;;;;;;12.64;98.59;97743.91;4157516;28;20056;-73
2022/10/15 02:02:43;;;;;;;0.93;0.80;;;;;;;12.66;98.39;97740.75;4157389;28;20065;-73
2022/10/15 02:04:43;;;;;;;1.52;0.88;;;;;;;12.67;98.58;97747.09;4154747;28;20089;-73
2022/10/15 02:06:47;;;;;;;1.17;0.90;;;;;;;12.64;99.14;97746.69;4154796;28;20458;-73
2022/10/15 02:09:02;;;;;;;1.52;0.80;;;;;;;12.65;99.12;97750.25;4156882;28;20053;-73
2022/10/15 02:11:10;;;;;;;0.90;0.77;;;;;;;12.66;98.60;97751.84;4159438;28;20068;-73
2022/10/15 02:13:23;;;;;;;0.80;0.80;;;;;;;12.65;98.72;97741.94;4155222;28;20489;-73
2022/10/15 02:15:23;;;;;;;1.13;0.80;;;;;;;12.64;98.76;97737.59;4156698;28;20409;-73
2022/10/15 02:18:01;;;;;;;0.70;0.67;;;;;;;12.64;98.66;97732.03;4154540;28;20045;-73
2022/10/15 02:20:12;;;;;;;1.17;0.82;;;;;;;12.61;98.53;97727.31;4116806;28;20326;-73
2022/10/15 02:22:15;;;;;;;0.90;0.70;;;;;;;12.63;98.50;97722.91;4150373;28;20076;-73
2022/10/15 02:24:22;;;;;;;0.85;0.70;;;;;;;12.61;98.46;97722.56;4154188;28;20037;-73
2022/10/15 02:26:26;;;;;;;0.65;0.60;;;;;;;12.60;98.78;97711.88;4155620;28;20045;-73
2022/10/15 02:28:29;;;;;;;0.80;0.70;;;;;;;12.58;98.97;97715.06;4153875;28;20478;-73
2022/10/15 02:30:30;;;;;;;1.45;0.82;;;;;;;12.56;99.67;97711.09;4155335;28;20049;-73
2022/10/15 02:32:32;;;;;;;1.10;0.82;;;;;;;12.51;99.78;97698.47;4154118;28;20048;-73
2022/10/15 02:34:34;;;;;;;2.20;0.80;;;;;;;12.49;99.40;97708.38;4155971;28;20041;-73
2022/10/15 02:36:39;;;;;;;1.38;1.00;;;;;;;12.44;98.86;97698.53;4153804;28;20050;-73
2022/10/15 02:38:43;;;;;;;0.93;0.85;;;;;;;12.41;98.85;97702.09;4154386;28;20263;-73
2022/10/15 02:40:44;;;;;;;1.70;0.85;;;;;;;12.38;98.76;97703.72;4162984;28;20350;-73
2022/10/15 02:42:45;;;;;;;1.02;0.73;;;;;;;12.35;99.38;97706.53;4153971;28;20053;-73
2022/10/15 02:44:45;;;;;;;1.25;0.80;;;;;;;12.31;99.56;97700.97;4155894;28;20088;-73
2022/10/15 02:46:45;;;;;;;1.15;1.05;;;;;;;12.29;99.49;97706.16;4153561;28;20121;-73
2022/10/15 02:48:46;;;;;;;1.50;0.88;;;;;;;12.30;100.00;97706.94;4154376;28;20053;-73
2022/10/15 02:50:46;;;;;;;1.00;0.88;;;;;;;12.30;100.00;97707.72;4154336;28;20050;-73
2022/10/15 02:52:46;;;;;;;0.93;0.85;;;;;;;12.27;100.00;97697.47;4153592;28;20360;-73
2022/10/15 02:54:47;;;;;;;1.42;1.00;;;;;;;12.26;100.00;97695.09;4155751;28;20452;-73
2022/10/15 02:56:47;;;;;;;1.08;0.88;;;;;;;12.20;100.00;97689.19;4157407;28;20050;-73
2022/10/15 02:58:47;;;;;;;0.82;0.82;;;;;;;12.16;100.00;97693.19;4162230;28;20107;-73
2022/10/15 03:00:48;;;;;;;1.08;0.95;;;;;;;12.14;100.00;97693.59;4159118;28;20055;-73
2022/10/15 03:02:49;;;;;;;2.00;1.00;;;;;;;12.12;100.00;97698.75;4159911;28;20045;-73
2022/10/15 03:04:49;;;;;;;2.05;0.90;;;;;;;12.15;100.00;97713.78;4158758;28;20559;-73
2022/10/15 03:06:49;;;;;;;1.42;0.80;;;;;;;12.12;100.00;97717.38;4159030;28;20133;-73
2022/10/15 03:08:50;;;;;;;2.20;1.10;;;;;;;12.13;100.00;97708.66;4157049;28;20045;-73
2022/10/15 03:10:50;;;;;;;1.58;0.90;;;;;;;12.14;100.00;97710.22;4157249;28;20477;-73
2022/10/15 03:12:50;;;;;;;2.00;1.00;;;;;;;12.13;100.00;97713.41;4158113;28;20056;-73
2022/10/15 03:14:51;;;;;;;1.00;0.80;;;;;;;12.11;100.00;97716.59;4161006;28;20095;-73
2022/10/15 03:16:52;;;;;;;1.30;0.98;;;;;;;12.13;100.00;97716.97;4157784;28;20045;-73
2022/10/15 03:18:52;;;;;;;1.15;0.93;;;;;;;12.11;100.00;97707.50;4155869;28;20504;-73
2022/10/15 03:20:54;;;;;;;1.38;1.00;;;;;;;12.11;100.00;97715.81;4156516;28;20049;-73
2022/10/15 03:22:54;;;;;;;2.05;0.90;;;;;;;12.12;100.00;97715.41;4157683;28;20406;-73
2022/10/15 03:24:54;;;;;;;1.50;1.00;;;;;;;12.11;100.00;97711.06;4157034;28;20042;-73
2022/10/15 03:26:55;;;;;;;1.23;0.85;;;;;;;12.10;100.00;97709.47;4163275;28;20077;-73
2022/10/15 03:28:55;;;;;;;1.58;0.98;;;;;;;12.08;100.00;97707.13;4162169;28;20485;-73
2022/10/15 03:30:55;;;;;;;0.88;0.85;;;;;;;12.09;100.00;97699.59;4156626;28;20138;-73
2022/10/15 03:32:55;;;;;;;1.25;0.90;;;;;;;12.09;100.00;97708.69;4158149;28;20053;-73
2022/10/15 03:34:56;;;;;;;2.08;1.02;;;;;;;12.09;100.00;97711.47;4158546;28;20042;-73
2022/10/15 03:36:56;;;;;;;2.00;1.33;;;;;;;12.08;100.00;97707.13;4157966;28;20136;-73
2022/10/15 03:38:57;;;;;;;2.03;1.40;;;;;;;12.07;100.00;97713.84;4159706;28;20061;-73
2022/10/15 03:40:57;;;;;;;1.38;1.10;;;;;;;12.06;100.00;97703.94;4156669;28;20477;-73
2022/10/15 03:42:57;;;;;;;1.35;1.00;;;;;;;12.04;100.00;97700.00;4156637;28;20053;-73
2022/10/15 03:44:57;;;;;;;2.03;1.40;;;;;;;12.03;100.00;97701.22;4155806;28;20386;-73
2022/10/15 03:46:58;;;;;;;2.22;1.20;;;;;;;12.02;100.00;97697.66;4157919;28;20065;-73
2022/10/15 03:48:59;;;;;;;1.75;0.93;;;;;;;12.03;100.00;97710.31;4155747;28;20269;-73
2022/10/15 03:50:59;;;;;;;1.73;1.00;;;;;;;12.00;100.00;97704.81;4157440;28;20496;-73
2022/10/15 03:53:03;;;;;;;3.65;1.30;;;;;;;12.02;100.00;97707.94;4160887;28;20075;-73
2022/10/15 03:55:04;;;;;;;2.42;1.20;;;;;;;12.01;100.00;97711.91;4157806;28;20291;-73
2022/10/15 03:57:05;;;;;;;1.27;1.17;;;;;;;12.01;100.00;97709.16;4155881;28;20182;-73
2022/10/15 03:59:05;;;;;;;1.20;0.93;;;;;;;11.97;100.00;97703.59;4155181;28;20283;-73
2022/10/15 04:01:09;;;;;;;1.33;1.17;;;;;;;11.98;100.00;97718.25;4157227;28;20115;-73
2022/10/15 04:03:10;;;;;;;2.00;1.20;;;;;;;11.96;100.00;97712.34;4159539;28;20080;-73
2022/10/15 04:05:10;;;;;;;2.45;1.00;;;;;;;11.98;100.00;97710.72;4158035;28;20208;-73
2022/10/15 04:07:11;;;;;;;2.65;1.23;;;;;;;11.98;100.00;97715.50;4157252;28;20652;-73
2022/10/15 04:09:11;;;;;;;2.63;1.42;;;;;;;11.97;100.00;97705.59;4160532;28;20051;-73
2022/10/15 04:11:12;;;;;;;1.48;1.02;;;;;;;11.92;100.00;97704.06;4158213;28;20532;-73
2022/10/15 04:13:12;;;;;;;1.90;1.30;;;;;;;11.94;100.00;97698.09;4159749;28;20063;-73
2022/10/15 04:15:12;;;;;;;3.25;1.20;;;;;;;11.94;100.00;97693.34;4157335;28;20102;-73
2022/10/15 04:17:12;;;;;;;3.25;1.30;;;;;;;11.92;100.00;97681.09;4155877;28;20520;-73
2022/10/15 04:19:13;;;;;;;2.72;1.65;;;;;;;11.87;100.00;97673.97;4156113;28;20174;-72
2022/10/15 04:21:13;;;;;;;2.08;1.45;;;;;;;11.86;100.00;97680.72;4156390;28;20360;-73
2022/10/15 04:23:14;;;;;;;1.48;1.20;;;;;;;11.85;100.00;97690.25;4155896;28;20080;-73
2022/10/15 04:25:15;;;;;;;3.08;1.42;;;;;;;11.80;100.00;97690.66;4155928;28;20144;-73
2022/10/15 04:27:16;;;;;;;1.48;1.23;;;;;;;11.75;100.00;97702.94;4156987;28;20136;-73
2022/10/15 04:29:16;;;;;;;1.90;1.35;;;;;;;11.73;100.00;97702.53;4155641;28;20053;-73
2022/10/15 04:31:17;;;;;;;2.70;1.55;;;;;;;11.67;100.00;97698.63;4154594;28;20428;-73
2022/10/15 04:33:17;;;;;;;3.15;1.80;;;;;;;11.61;100.00;97697.47;4156870;28;20045;-73
2022/10/15 04:35:17;;;;;;;4.30;2.50;;;;;;;11.60;100.00;97695.09;4156440;28;20085;-73
2022/10/15 04:37:17;;;;;;;3.50;3.20;;;;;;;11.54;100.00;97692.75;4156340;28;20042;-73
2022/10/15 04:39:18;;;;;;;7.75;3.05;;;;;;;11.52;100.00;97684.06;4155915;28;20526;-73
2022/10/15 04:41:18;;;;;;;3.45;2.83;;;;;;;11.54;100.00;97695.50;4155943;28;20083;-73
2022/10/15 04:43:18;;;;;;;2.97;2.40;;;;;;;11.51;100.00;97690.78;4155531;28;20045;-73
2022/10/15 04:45:19;;;;;;;1.90;1.70;;;;;;;11.51;100.00;97701.09;4156651;28;20481;-73
2022/10/15 04:47:19;;;;;;;2.88;2.35;;;;;;;11.47;100.00;97705.84;4156074;28;20041;-73
2022/10/15 04:49:19;;;;;;;3.65;2.63;;;;;;;11.47;100.00;97708.59;4154995;28;20730;-73
2022/10/15 04:51:20;;;;;;;3.88;2.95;;;;;;;11.46;100.00;97701.50;4157722;28;20043;-73
2022/10/15 04:53:21;;;;;;;4.35;2.38;;;;;;;11.46;100.00;97709.81;4156789;28;20509;-73
2022/10/15 04:55:21;;;;;;;3.97;2.58;;;;;;;11.47;100.00;97719.69;4156542;28;20068;-73
2022/10/15 04:57:21;;;;;;;3.40;2.03;;;;;;;11.44;100.00;97714.97;4155316;28;20060;-73
2022/10/15 04:59:21;;;;;;;2.60;1.90;;;;;;;11.45;100.00;97716.53;4153677;28;20038;-73
2022/10/15 05:01:22;;;;;;;4.47;1.98;;;;;;;11.44;100.00;97706.66;4155716;28;20037;-73
2022/10/15 05:03:22;;;;;;;2.53;1.67;;;;;;;11.42;100.00;97704.28;4161534;28;20078;-73
2022/10/15 05:05:23;;;;;;;2.13;1.70;;;;;;;11.44;100.00;97701.91;4154195;28;20046;-73
2022/10/15 05:07:23;;;;;;;2.85;1.75;;;;;;;11.44;100.00;97712.97;4156460;28;20048;-73
2022/10/15 05:09:23;;;;;;;2.35;1.80;;;;;;;11.42;100.00;97706.25;4154689;28;20052;-73
2022/10/15 05:11:26;;;;;;;2.30;1.60;;;;;;;11.43;100.00;97705.88;4155236;28;20053;-73
2022/10/15 05:13:26;;;;;;;3.63;2.33;;;;;;;11.41;100.00;97708.22;4160123;28;20049;-73
2022/10/15 05:15:26;;;;;;;3.22;2.45;;;;;;;11.41;100.00;97705.47;4156502;28;20107;-73
2022/10/15 05:17:29;;;;;;;6.93;2.75;;;;;;;11.38;100.00;97705.47;4155632;28;20447;-73
2022/10/15 05:19:30;;;;;;;3.90;2.40;;;;;;;11.41;100.00;97711.00;4154877;28;20068;-73
2022/10/15 05:21:32;;;;;;;5.68;2.50;;;;;;;11.42;100.00;97709.84;4155990;28;20045;-73
2022/10/15 05:23:33;;;;;;;3.17;1.90;;;;;;;11.43;100.00;97728.03;4155136;28;20041;-73
2022/10/15 05:25:33;;;;;;;6.90;2.58;;;;;;;11.43;100.00;97721.69;4155099;28;20047;-73
2022/10/15 05:27:34;;;;;;;3.25;2.60;;;;;;;11.42;100.00;97720.09;4156967;28;20334;-73
2022/10/15 05:29:34;;;;;;;3.13;2.50;;;;;;;11.40;100.00;97717.72;4154487;28;20049;-73
2022/10/15 05:31:34;;;;;;;3.35;2.50;;;;;;;11.38;100.00;97720.13;4155186;28;20104;-73
2022/10/15 05:33:35;;;;;;;2.97;2.00;;;;;;;11.38;100.00;97722.09;4155292;28;20076;-73
2022/10/15 05:35:36;;;;;;;3.88;2.05;;;;;;;11.36;100.00;97725.28;4155781;28;20382;-73
2022/10/15 05:37:36;;;;;;;3.75;2.20;;;;;;;11.35;100.00;97722.91;4156701;28;20042;-73
2022/10/15 05:39:37;;;;;;;3.17;2.30;;;;;;;11.33;100.00;97712.22;4156540;28;20406;-73
2022/10/15 05:41:37;;;;;;;3.97;2.35;;;;;;;11.32;100.00;97709.84;4158524;28;20053;-73
2022/10/15 05:43:37;;;;;;;5.13;2.70;;;;;;;11.34;100.00;97724.09;4154722;28;20041;-73
2022/10/15 05:45:38;;;;;;;5.93;2.50;;;;;;;11.32;100.00;97715.38;4155752;28;20053;-73
2022/10/15 05:47:38;;;;;;;3.00;2.30;;;;;;;11.31;100.00;97703.53;4156907;28;20549;-73
2022/10/15 05:49:38;;;;;;;4.55;2.20;;;;;;;11.31;100.00;97716.59;4094404;28;20044;-73
2022/10/15 05:51:38;;;;;;;12.15;5.93;;;;;;;11.32;100.00;97718.16;4154882;28;20446;-73
2022/10/15 05:53:39;;;;;;;8.10;5.78;;;;;;;11.30;100.00;97723.31;4162309;28;20485;-73
2022/10/15 05:55:39;;;;;;;7.30;4.60;;;;;;;11.31;100.00;97734.00;4157662;28;20041;-73
2022/10/15 05:57:40;;;;;;;6.93;5.40;;;;;;;11.31;100.00;97735.97;4157692;28;20045;-73
2022/10/15 05:59:40;;;;;;;7.00;3.30;;;;;;;11.31;100.00;97742.28;4154915;28;20494;-73
2022/10/15 06:01:40;;;;;;;6.13;2.88;;;;;;;11.35;100.00;97747.84;4154109;28;20044;-73
2022/10/15 06:03:41;;;;;;;9.18;4.53;;;;;;;11.36;100.00;97752.19;4159427;28;20536;-73
2022/10/15 06:05:42;;;;;;;6.90;5.07;;;;;;;11.38;100.00;97747.03;4154608;28;20076;-73
2022/10/15 06:07:42;;;;;;;8.95;3.88;;;;;;;11.38;100.00;97747.81;4155872;28;20049;-73
2022/10/15 06:09:42;;;;;;;5.05;3.30;;;;;;;11.39;100.00;97748.59;4154343;28;20111;-73
2022/10/15 06:11:42;;;;;;;4.80;2.83;;;;;;;11.43;100.00;97757.69;4158198;28;20064;-73
2022/10/15 06:13:44;;;;;;;3.92;2.42;;;;;;;11.43;100.00;97763.25;4156058;28;20189;-73
2022/10/15 06:15:45;;;;;;;4.32;2.35;;;;;;;11.44;100.00;97760.06;4155180;28;20068;-73
2022/10/15 06:17:45;;;;;;;6.90;2.90;;;;;;;11.50;100.00;97769.56;4156335;28;20132;-73
2022/10/15 06:19:45;;;;;;;5.30;2.78;;;;;;;11.49;100.00;97756.06;4154142;28;20095;-73
2022/10/15 06:21:46;;;;;;;3.22;2.65;;;;;;;11.50;100.00;97772.31;4156065;28;20052;-73
2022/10/15 06:23:46;;;;;;;4.38;3.03;;;;;;;11.56;100.00;97771.88;4158208;28;20405;-73
2022/10/15 06:25:46;;;;;;;3.83;3.00;;;;;;;11.57;100.00;97782.56;4153838;28;20049;-73
2022/10/15 06:27:47;;;;;;;5.22;3.13;;;;;;;11.61;100.00;97782.56;4156070;28;20485;-72
2022/10/15 06:29:47;;;;;;;4.38;2.75;;;;;;;11.63;100.00;97775.44;4154047;28;20045;-73
2022/10/15 06:31:47;;;;;;;7.03;3.65;;;;;;;11.64;100.00;97770.66;4157842;28;20456;-73
2022/10/15 06:33:47;;;;;;;5.22;2.75;;;;;;;11.68;100.00;97780.56;4158865;28;20075;-73
2022/10/15 06:35:48;;;;;;;4.13;2.80;;;;;;;11.70;100.00;97775.41;4157683;28;20048;-73
2022/10/15 06:37:48;;;;;;;3.80;2.35;;;;;;;11.73;100.00;97763.50;4159912;28;20333;-73
2022/10/15 06:39:48;;;;;;;3.47;2.63;;;;;;;11.79;100.00;97772.19;4156696;28;20224;-73
2022/10/15 06:41:49;;;;;;;3.92;2.88;;;;;;;11.81;100.00;97764.28;4158812;28;20448;-73
2022/10/15 06:43:49;;;;;;;8.07;3.88;;;;;;;11.90;100.00;97769.38;4157771;28;20128;-73
2022/10/15 06:45:49;;;;;;;4.32;3.75;;;;;;;11.95;100.00;97777.28;4159672;28;20293;-73
2022/10/15 06:47:50;;;;;;;6.05;4.07;;;;;;;11.97;100.00;97769.34;4165928;28;20559;-73
2022/10/15 06:49:50;;;;;;;7.63;3.47;;;;;;;12.04;100.00;97778.44;4159811;28;20413;-73
2022/10/15 06:51:50;;;;;;;5.78;3.40;;;;;;;12.04;100.00;97772.88;4158089;28;20049;-73
2022/10/15 06:53:50;;;;;;;7.03;3.28;;;;;;;12.09;100.00;97777.22;4159672;28;20045;-73
2022/10/15 06:55:51;;;;;;;4.00;2.72;;;;;;;12.08;100.00;97783.94;4160388;28;20534;-73
2022/10/15 06:57:51;;;;;;;4.00;3.25;;;;;;;12.13;100.00;97800.16;4160851;28;20044;-73
2022/10/15 06:59:51;;;;;;;3.88;2.92;;;;;;;12.13;100.00;97799.38;4164314;28;20064;-73
2022/10/15 07:01:51;;;;;;;3.65;2.80;;;;;;;12.14;100.00;97803.72;4164154;28;20092;-73
2022/10/15 07:03:52;;;;;;;3.42;2.92;;;;;;;12.16;100.00;97795.78;4162908;28;20053;-73
2022/10/15 07:05:52;;;;;;;3.90;3.00;;;;;;;12.17;100.00;97791.84;4158912;28;20045;-73
2022/10/15 07:07:53;;;;;;;3.85;2.80;;;;;;;12.19;100.00;97790.22;4156271;28;20042;-73
2022/10/15 07:09:54;;;;;;;3.75;2.88;;;;;;;12.24;100.00;97795.34;4162886;28;20045;-73
2022/10/15 07:11:54;;;;;;;5.22;2.60;;;;;;;12.32;100.00;97799.66;4158108;28;20053;-73
2022/10/15 07:13:56;;;;;;;5.35;2.40;;;;;;;12.36;100.00;97813.50;4159766;28;20045;-73
2022/10/15 07:15:57;;;;;;;2.60;2.10;;;;;;;12.36;100.00;97814.28;4157043;28;20049;-73
2022/10/15 07:18:00;;;;;;;4.07;2.75;;;;;;;12.42;100.00;97819.44;4161169;28;20058;-73
2022/10/15 07:20:00;;;;;;;5.85;2.63;;;;;;;12.43;100.00;97813.47;4157286;28;20144;-73
2022/10/15 07:22:00;;;;;;;5.35;3.17;;;;;;;12.47;100.00;97816.19;4157833;28;20073;-73
2022/10/15 07:24:01;;;;;;;3.28;2.17;;;;;;;12.50;100.00;97807.88;4156157;28;20184;-73
2022/10/15 07:26:01;;;;;;;3.58;2.58;;;;;;;12.57;100.00;97813.34;4157439;28;20144;-73
2022/10/15 07:28:02;;;;;;;4.35;2.38;;;;;;;12.65;100.00;97811.31;4156550;28;20043;-73
2022/10/15 07:30:03;;;;;;;2.85;2.25;;;;;;;12.70;100.00;97813.66;4156662;28;20437;-73
2022/10/15 07:32:06;;;;;;;6.93;2.60;;;;;;;12.77;100.00;97823.94;4160775;28;20057;-73
2022/10/15 07:34:06;;;;;;;5.90;2.25;;;;;;;12.83;100.00;97816.75;4157561;28;20148;-73
2022/10/15 07:36:10;;;;;;;4.05;2.25;;;;;;;12.89;100.00;97828.97;4156649;28;20438;-73
2022/10/15 07:38:10;;;;;;;3.60;1.92;;;;;;;12.93;100.00;97822.22;4160032;28;20497;-73
2022/10/15 07:40:11;;;;;;;6.80;3.28;;;;;;;12.98;100.00;97831.28;4159082;28;20029;-73
2022/10/15 07:42:11;;;;;;;4.95;2.30;;;;;;;12.99;100.00;97825.34;4160055;28;20074;-73
2022/10/15 07:44:11;;;;;;;7.97;2.53;;;;;;;13.02;100.00;97826.50;4156598;28;20026;-73
2022/10/15 07:46:11;;;;;;;2.10;1.65;;;;;;;13.07;100.00;97826.03;4157032;28;20030;-73
2022/10/15 07:48:12;;;;;;;3.63;1.70;;;;;;;13.07;100.00;97832.38;4157112;28;20030;-73
2022/10/15 07:50:12;;;;;;;2.33;1.70;;;;;;;13.12;100.00;97836.72;4155509;28;20426;-73
2022/10/15 07:52:12;;;;;;;2.80;1.95;;;;;;;13.12;100.00;97833.94;4156386;28;20040;-73
2022/10/15 07:54:13;;;;;;;3.47;1.83;;;;;;;13.16;100.00;97843.03;4158587;28;20117;-73
2022/10/15 07:56:14;;;;;;;4.03;2.08;;;;;;;13.19;100.00;97845.00;4156113;28;20030;-73
2022/10/15 07:58:15;;;;;;;10.32;5.20;;;;;;;13.23;100.00;97845.75;4156824;28;20029;-73
2022/10/15 08:00:15;;;;;;;13.27;5.72;;;;;;;13.24;100.00;97849.31;4161698;28;20095;-73
2022/10/15 08:02:17;;;;;;;8.02;4.43;;;;;;;13.28;100.00;97850.09;4159306;28;20036;-73
2022/10/15 08:04:19;;;;;;;4.68;3.35;;;;;;;13.30;100.00;97862.38;4158880;28;20033;-73
2022/10/15 08:06:19;;;;;;;5.83;2.43;;;;;;;13.33;100.00;97858.78;4156962;28;20454;-73
2022/10/15 08:08:20;;;;;;;5.95;2.80;;;;;;;13.35;100.00;97861.94;4156186;28;20124;-73
2022/10/15 08:10:20;;;;;;;3.95;1.80;;;;;;;13.40;100.00;97857.91;4155440;28;20033;-73
2022/10/15 08:12:21;;;;;;;8.10;2.05;;;;;;;13.53;100.00;97872.09;4162418;28;20628;-73
2022/10/15 08:14:21;;;;;;;4.15;1.95;;;;;;;13.60;100.00;97866.47;4156950;28;20148;-73
2022/10/15 08:16:21;;;;;;;2.13;1.67;;;;;;;13.69;100.00;97863.97;4156914;28;20482;-73
2022/10/15 08:18:22;;;;;;;3.97;1.80;;;;;;;13.77;100.00;97863.50;4154834;28;20045;-73
2022/10/15 08:20:22;;;;;;;3.80;1.77;;;;;;;13.85;100.00;97864.19;4155842;28;20471;-73
2022/10/15 08:22:23;;;;;;;1.80;1.50;;;;;;;13.90;100.00;97849.03;4156561;28;20055;-73
2022/10/15 08:24:23;;;;;;;3.22;1.48;;;;;;;13.98;100.00;97847.75;4158019;28;20046;-73
2022/10/15 08:26:25;;;;;;;3.40;1.45;;;;;;;14.02;100.00;97852.06;4160620;28;20087;-73
2022/10/15 08:28:27;;;;;;;4.18;1.33;;;;;;;14.18;100.00;97859.03;4159169;28;20081;-73
2022/10/15 08:30:27;;;;;;;1.73;0.93;;;;;;;14.23;100.00;97856.59;4155949;28;20069;-73
2022/10/15 08:32:27;;;;;;;1.20;1.02;;;;;;;14.26;100.00;97852.97;4155076;28;20217;-73
2022/10/15 08:34:28;;;;;;;2.00;1.00;;;;;;;14.25;99.87;97854.19;4156952;28;20076;-73
2022/10/15 08:36:28;;;;;;;1.42;1.08;;;;;;;14.26;99.48;97852.19;4154699;28;20075;-73
2022/10/15 08:38:30;;;;;;;1.55;0.90;;;;;;;14.28;99.45;97855.31;4154739;28;20136;-73
2022/10/15 08:40:30;;;;;;;1.00;0.90;;;;;;;14.36;99.07;97856.81;4156299;28;20102;-73
2022/10/15 08:42:39;;;;;;;1.80;1.30;;;;;;;14.41;98.80;97870.28;4158965;28;20459;-73
2022/10/15 08:44:46;;;;;;;2.08;1.20;;;;;;;14.43;97.93;97870.63;4156247;28;20279;-73
2022/10/15 08:46:49;;;;;;;1.15;0.88;;;;;;;14.55;97.78;97892.34;4159747;28;20049;-73
2022/10/15 08:48:54;;;;;;;0.95;0.70;;;;;;;14.61;97.93;97890.69;4158340;28;20069;-73
2022/10/15 08:51:02;;;;;;;5.15;0.85;;;;;;;14.67;96.91;97891.00;4157709;28;20049;-73
2022/10/15 08:53:03;;;;;;;0.65;0.60;;;;;;;14.69;96.15;97890.59;4157751;28;20046;-73
2022/10/15 08:55:04;;;;;;;0.75;0.63;;;;;;;14.70;95.74;97892.16;4156167;28;20045;-73
2022/10/15 08:57:16;;;;;;;1.13;0.60;;;;;;;14.72;95.58;97898.09;4158503;28;20162;-73
2022/10/15 08:59:37;;;;;;;0.80;0.80;;;;;;;14.78;95.06;97904.78;4157302;28;20489;-73
2022/10/15 09:01:51;;;;;;;2.08;0.80;;;;;;;14.85;94.97;97899.09;4156350;28;20077;-73
2022/10/15 09:04:13;;;;;;;1.65;0.90;;;;;;;14.91;94.96;97907.78;4157521;28;20049;-73
2022/10/15 09:06:19;;;;;;;0.80;0.80;;;;;;;14.95;95.40;97900.16;4155896;28;20060;-73
2022/10/15 09:09:01;;;;;;;1.58;1.08;;;;;;;15.00;94.38;97892.13;4155946;28;20032;-73
2022/10/15 09:11:12;;;;;;;1.35;0.88;;;;;;;15.02;94.93;97903.63;4155306;28;20436;-73
2022/10/15 09:13:20;;;;;;;1.67;1.20;;;;;;;15.09;94.73;97894.38;4159435;28;20049;-73
2022/10/15 09:15:23;;;;;;;1.98;0.80;;;;;;;15.11;94.05;97898.28;4155904;28;20072;-73
2022/10/15 09:17:26;;;;;;;2.35;1.10;;;;;;;15.14;94.23;97897.47;4158201;28;20308;-73
2022/10/15 09:19:28;;;;;;;1.83;1.27;;;;;;;15.17;94.00;97891.03;4155454;28;20232;-74
2022/10/15 09:21:30;;;;;;;5.70;1.65;;;;;;;15.18;93.48;97891.81;4154994;28;20448;-74
2022/10/15 09:23:34;;;;;;;3.55;2.13;;;;;;;15.31;92.08;97887.25;4156501;28;20079;-74
2022/10/15 09:25:36;;;;;;;4.85;2.50;;;;;;;15.46;90.98;97901.69;4155968;28;20519;-73
2022/10/15 09:27:37;;;;;;;11.98;5.45;;;;;;;15.48;90.87;97902.09;4156291;28;20037;-73
2022/10/15 09:29:49;;;;;;;12.50;7.55;;;;;;;15.49;91.95;97906.44;4154449;28;20053;-73
2022/10/15 09:31:53;;;;;;;5.03;2.53;;;;;;;15.52;90.99;97905.59;4157456;28;20046;-74
2022/10/15 09:34:02;;;;;;;2.20;1.50;;;;;;;15.56;91.53;97899.97;4161326;28;20441;-73
2022/10/15 09:36:24;;;;;;;2.78;1.70;;;;;;;15.65;91.13;97903.78;4155701;28;20045;-74